sensor_id;sensor_type;location;lat;lon;timestamp;pressure;altitude;pressure_sealevel;temperature;humidity
63019;BME280;49105;46.046;10.760;2023-03-13T00:00:15;95810.94;;;5.70;59.14
63019;BME280;49105;46.046;10.760;2023-03-13T00:02:41;95813.63;;;5.59;59.30
63019;BME280;49105;46.046;10.760;2023-03-13T00:05:10;95811.38;;;5.51;59.90
63019;BME280;49105;46.046;10.760;2023-03-13T00:07:35;95803.88;;;5.42;59.68
63019;BME280;49105;46.046;10.760;2023-03-13T00:10:01;95800.88;;;5.51;59.68
63019;BME280;49105;46.046;10.760;2023-03-13T00:12:26;95804.09;;;5.53;60.13
63019;BME280;49105;46.046;10.760;2023-03-13T00:14:52;95804.41;;;5.56;59.84
63019;BME280;49105;46.046;10.760;2023-03-13T00:17:18;95807.63;;;5.46;60.15
63019;BME280;49105;46.046;10.760;2023-03-13T00:19:43;95796.22;;;5.24;60.41
63019;BME280;49105;46.046;10.760;2023-03-13T00:22:08;95794.16;;;5.26;60.68
63019;BME280;49105;46.046;10.760;2023-03-13T00:24:34;95793.38;;;5.42;60.27
63019;BME280;49105;46.046;10.760;2023-03-13T00:26:59;95792.06;;;5.57;59.89
63019;BME280;49105;46.046;10.760;2023-03-13T00:29:29;95792.72;;;5.64;59.60
63019;BME280;49105;46.046;10.760;2023-03-13T00:31:56;95807.66;;;5.63;59.60
63019;BME280;49105;46.046;10.760;2023-03-13T00:34:24;95801.47;;;5.53;59.92
63019;BME280;49105;46.046;10.760;2023-03-13T00:36:52;95808.34;;;5.42;60.00
63019;BME280;49105;46.046;10.760;2023-03-13T00:39:18;95805.06;;;5.35;60.15
63019;BME280;49105;46.046;10.760;2023-03-13T00:41:43;95804.59;;;5.38;60.24
63019;BME280;49105;46.046;10.760;2023-03-13T00:44:09;95793.97;;;5.44;60.17
63019;BME280;49105;46.046;10.760;2023-03-13T00:46:34;95795.16;;;5.54;59.79
63019;BME280;49105;46.046;10.760;2023-03-13T00:49:00;95793.75;;;5.63;59.68
63019;BME280;49105;46.046;10.760;2023-03-13T00:51:26;95789.53;;;5.62;59.49
63019;BME280;49105;46.046;10.760;2023-03-13T00:53:52;95788.94;;;5.43;59.86
63019;BME280;49105;46.046;10.760;2023-03-13T00:56:19;95787.88;;;5.27;60.41
63019;BME280;49105;46.046;10.760;2023-03-13T00:58:46;95779.34;;;5.20;60.74
63019;BME280;49105;46.046;10.760;2023-03-13T01:01:16;95777.28;;;5.22;60.87
63019;BME280;49105;46.046;10.760;2023-03-13T01:03:44;95778.09;;;5.22;60.43
63019;BME280;49105;46.046;10.760;2023-03-13T01:06:12;95771.81;;;5.23;60.72
63019;BME280;49105;46.046;10.760;2023-03-13T01:08:38;95777.09;;;5.12;60.75
63019;BME280;49105;46.046;10.760;2023-03-13T01:11:07;95769.69;;;5.09;60.94
63019;BME280;49105;46.046;10.760;2023-03-13T01:13:34;95763.75;;;5.13;60.69
63019;BME280;49105;46.046;10.760;2023-03-13T01:16:08;95763.84;;;5.18;60.87
63019;BME280;49105;46.046;10.760;2023-03-13T01:18:35;95754.00;;;5.26;60.65
63019;BME280;49105;46.046;10.760;2023-03-13T01:21:01;95748.94;;;5.36;60.32
63019;BME280;49105;46.046;10.760;2023-03-13T01:23:27;95758.63;;;5.35;60.41
63019;BME280;49105;46.046;10.760;2023-03-13T01:25:55;95756.19;;;5.17;60.47
63019;BME280;49105;46.046;10.760;2023-03-13T01:28:22;95758.97;;;5.10;60.62
63019;BME280;49105;46.046;10.760;2023-03-13T01:30:47;95756.56;;;5.09;61.01
63019;BME280;49105;46.046;10.760;2023-03-13T01:33:13;95758.53;;;5.02;61.13
63019;BME280;49105;46.046;10.760;2023-03-13T01:35:38;95745.75;;;5.05;60.93
63019;BME280;49105;46.046;10.760;2023-03-13T01:38:04;95741.25;;;5.17;60.94
63019;BME280;49105;46.046;10.760;2023-03-13T01:40:30;95743.28;;;5.27;60.92
63019;BME280;49105;46.046;10.760;2023-03-13T01:42:58;95730.56;;;5.36;60.78
63019;BME280;49105;46.046;10.760;2023-03-13T01:49:02;95734.47;;;5.50;60.27
63019;BME280;49105;46.046;10.760;2023-03-13T01:51:43;95739.84;;;5.27;60.93
63019;BME280;49105;46.046;10.760;2023-03-13T01:56:49;95734.00;;;5.08;61.35
63019;BME280;49105;46.046;10.760;2023-03-13T01:59:18;95735.47;;;5.15;61.18
63019;BME280;49105;46.046;10.760;2023-03-13T02:01:46;95737.69;;;5.23;60.72
63019;BME280;49105;46.046;10.760;2023-03-13T02:04:15;95735.50;;;5.32;60.69
63019;BME280;49105;46.046;10.760;2023-03-13T02:06:42;95730.06;;;5.39;60.73
63019;BME280;49105;46.046;10.760;2023-03-13T02:09:14;95730.38;;;5.26;60.77
63019;BME280;49105;46.046;10.760;2023-03-13T02:11:53;95732.19;;;5.08;61.24
63019;BME280;49105;46.046;10.760;2023-03-13T02:14:22;95729.81;;;5.07;61.20
63019;BME280;49105;46.046;10.760;2023-03-13T02:16:51;95732.75;;;5.10;61.34
63019;BME280;49105;46.046;10.760;2023-03-13T02:19:27;95734.09;;;5.13;61.21
63019;BME280;49105;46.046;10.760;2023-03-13T02:25:11;95724.00;;;5.21;61.15
63019;BME280;49105;46.046;10.760;2023-03-13T02:27:40;95735.53;;;4.92;61.75
63019;BME280;49105;46.046;10.760;2023-03-13T02:30:08;95737.75;;;4.83;61.48
63019;BME280;49105;46.046;10.760;2023-03-13T02:32:34;95739.34;;;4.84;61.90
63019;BME280;49105;46.046;10.760;2023-03-13T02:35:05;95739.28;;;4.96;61.62
63019;BME280;49105;46.046;10.760;2023-03-13T02:37:32;95740.66;;;4.98;61.28
63019;BME280;49105;46.046;10.760;2023-03-13T02:40:00;95740.00;;;4.91;61.84
63019;BME280;49105;46.046;10.760;2023-03-13T02:42:28;95733.81;;;4.97;61.43
63019;BME280;49105;46.046;10.760;2023-03-13T02:44:54;95739.25;;;5.08;61.26
63019;BME280;49105;46.046;10.760;2023-03-13T02:47:22;95732.31;;;5.02;61.73
63019;BME280;49105;46.046;10.760;2023-03-13T02:49:48;95731.75;;;5.00;61.61
63019;BME280;49105;46.046;10.760;2023-03-13T02:52:34;95730.25;;;5.04;61.73
63019;BME280;49105;46.046;10.760;2023-03-13T02:55:11;95733.22;;;5.07;61.68
63019;BME280;49105;46.046;10.760;2023-03-13T02:57:38;95737.66;;;5.07;61.51
63019;BME280;49105;46.046;10.760;2023-03-13T03:00:05;95731.28;;;5.03;61.62
63019;BME280;49105;46.046;10.760;2023-03-13T03:02:31;95734.13;;;5.01;61.59
63019;BME280;49105;46.046;10.760;2023-03-13T03:04:56;95733.44;;;5.06;61.86
63019;BME280;49105;46.046;10.760;2023-03-13T03:07:22;95736.97;;;5.11;61.47
63019;BME280;49105;46.046;10.760;2023-03-13T03:09:47;95734.75;;;5.20;61.52
63019;BME280;49105;46.046;10.760;2023-03-13T03:12:13;95736.78;;;5.18;61.45
63019;BME280;49105;46.046;10.760;2023-03-13T03:14:38;95733.91;;;5.03;61.55
63019;BME280;49105;46.046;10.760;2023-03-13T03:17:04;95729.84;;;4.95;62.07
63019;BME280;49105;46.046;10.760;2023-03-13T03:19:29;95727.31;;;5.00;61.66
63019;BME280;49105;46.046;10.760;2023-03-13T03:21:55;95725.34;;;5.07;61.83
63019;BME280;49105;46.046;10.760;2023-03-13T03:24:20;95723.84;;;5.11;61.89
63019;BME280;49105;46.046;10.760;2023-03-13T03:26:46;95740.47;;;5.17;62.02
63019;BME280;49105;46.046;10.760;2023-03-13T03:29:11;95741.88;;;5.08;62.04
63019;BME280;49105;46.046;10.760;2023-03-13T03:31:37;95735.78;;;4.90;62.14
63019;BME280;49105;46.046;10.760;2023-03-13T03:34:02;95735.78;;;4.90;62.25
63019;BME280;49105;46.046;10.760;2023-03-13T03:36:28;95730.63;;;4.95;62.86
63019;BME280;49105;46.046;10.760;2023-03-13T03:38:54;95724.75;;;5.05;62.52
63019;BME280;49105;46.046;10.760;2023-03-13T03:41:20;95724.81;;;5.22;62.34
63019;BME280;49105;46.046;10.760;2023-03-13T03:43:45;95727.69;;;5.37;61.90
63019;BME280;49105;46.046;10.760;2023-03-13T03:46:12;95728.94;;;5.35;61.47
63019;BME280;49105;46.046;10.760;2023-03-13T03:48:38;95741.81;;;5.19;62.15
63019;BME280;49105;46.046;10.760;2023-03-13T03:51:04;95745.75;;;5.05;62.48
63019;BME280;49105;46.046;10.760;2023-03-13T03:53:29;95742.38;;;4.93;62.69
63019;BME280;49105;46.046;10.760;2023-03-13T03:55:56;95744.50;;;4.79;63.24
63019;BME280;49105;46.046;10.760;2023-03-13T03:58:22;95740.47;;;4.88;62.95
63019;BME280;49105;46.046;10.760;2023-03-13T04:00:47;95743.91;;;5.06;62.50
63019;BME280;49105;46.046;10.760;2023-03-13T04:03:13;95738.97;;;5.21;62.55
63019;BME280;49105;46.046;10.760;2023-03-13T04:05:39;95746.50;;;5.17;62.44
63019;BME280;49105;46.046;10.760;2023-03-13T04:08:05;95754.19;;;5.07;62.70
63019;BME280;49105;46.046;10.760;2023-03-13T04:10:31;95750.22;;;5.05;62.38
63019;BME280;49105;46.046;10.760;2023-03-13T04:12:56;95752.16;;;4.97;62.66
63019;BME280;49105;46.046;10.760;2023-03-13T04:15:22;95756.72;;;5.02;62.52
63019;BME280;49105;46.046;10.760;2023-03-13T04:17:47;95766.75;;;5.05;62.74
63019;BME280;49105;46.046;10.760;2023-03-13T04:20:13;95768.81;;;5.03;62.83
63019;BME280;49105;46.046;10.760;2023-03-13T04:22:39;95768.66;;;5.10;62.68
63019;BME280;49105;46.046;10.760;2023-03-13T04:25:05;95766.59;;;5.12;62.35
63019;BME280;49105;46.046;10.760;2023-03-13T04:27:32;95775.84;;;5.14;62.63
63019;BME280;49105;46.046;10.760;2023-03-13T04:29:57;95776.72;;;5.20;62.48
63019;BME280;49105;46.046;10.760;2023-03-13T04:32:23;95771.47;;;5.20;62.44
63019;BME280;49105;46.046;10.760;2023-03-13T04:34:48;95768.78;;;5.15;62.49
63019;BME280;49105;46.046;10.760;2023-03-13T04:37:14;95765.91;;;5.16;62.56
63019;BME280;49105;46.046;10.760;2023-03-13T04:39:39;95766.31;;;5.25;62.02
63019;BME280;49105;46.046;10.760;2023-03-13T04:42:05;95770.06;;;5.29;62.19
63019;BME280;49105;46.046;10.760;2023-03-13T04:44:30;95770.44;;;5.21;62.47
63019;BME280;49105;46.046;10.760;2023-03-13T04:46:56;95771.84;;;5.12;62.97
63019;BME280;49105;46.046;10.760;2023-03-13T04:49:21;95769.84;;;5.02;63.05
63019;BME280;49105;46.046;10.760;2023-03-13T04:51:46;95766.09;;;4.98;63.36
63019;BME280;49105;46.046;10.760;2023-03-13T04:54:12;95771.00;;;4.94;63.45
63019;BME280;49105;46.046;10.760;2023-03-13T04:56:38;95771.56;;;4.96;63.42
63019;BME280;49105;46.046;10.760;2023-03-13T04:59:03;95769.59;;;5.04;63.71
63019;BME280;49105;46.046;10.760;2023-03-13T05:01:29;95771.84;;;5.12;63.63
63019;BME280;49105;46.046;10.760;2023-03-13T05:03:55;95769.47;;;5.10;63.85
63019;BME280;49105;46.046;10.760;2023-03-13T05:06:20;95760.84;;;4.98;63.95
63019;BME280;49105;46.046;10.760;2023-03-13T05:08:46;95761.78;;;4.92;64.06
63019;BME280;49105;46.046;10.760;2023-03-13T05:11:11;95759.06;;;4.87;63.67
63019;BME280;49105;46.046;10.760;2023-03-13T05:13:37;95772.28;;;4.80;63.82
63019;BME280;49105;46.046;10.760;2023-03-13T05:16:02;95779.72;;;4.71;63.89
63019;BME280;49105;46.046;10.760;2023-03-13T05:18:28;95770.72;;;4.67;64.05
63019;BME280;49105;46.046;10.760;2023-03-13T05:20:54;95769.94;;;4.67;63.82
63019;BME280;49105;46.046;10.760;2023-03-13T05:23:19;95765.50;;;4.67;63.89
63019;BME280;49105;46.046;10.760;2023-03-13T05:25:44;95773.13;;;4.69;63.82
63019;BME280;49105;46.046;10.760;2023-03-13T05:28:10;95774.47;;;4.71;63.79
63019;BME280;49105;46.046;10.760;2023-03-13T05:30:36;95774.81;;;4.75;63.58
63019;BME280;49105;46.046;10.760;2023-03-13T05:33:01;95772.38;;;4.85;63.46
63019;BME280;49105;46.046;10.760;2023-03-13T05:35:27;95775.78;;;4.97;63.65
63019;BME280;49105;46.046;10.760;2023-03-13T05:37:52;95782.34;;;5.12;63.17
63019;BME280;49105;46.046;10.760;2023-03-13T05:40:18;95771.56;;;5.25;63.28
63019;BME280;49105;46.046;10.760;2023-03-13T05:46:04;95777.28;;;5.22;62.89
63019;BME280;49105;46.046;10.760;2023-03-13T05:48:30;95784.94;;;5.23;63.07
63019;BME280;49105;46.046;10.760;2023-03-13T05:50:56;95784.31;;;5.33;63.04
63019;BME280;49105;46.046;10.760;2023-03-13T05:53:22;95778.13;;;5.39;62.77
63019;BME280;49105;46.046;10.760;2023-03-13T05:55:47;95784.72;;;5.42;62.69
63019;BME280;49105;46.046;10.760;2023-03-13T05:58:13;95787.00;;;5.38;63.35
63019;BME280;49105;46.046;10.760;2023-03-13T06:00:38;95774.94;;;5.37;63.06
63019;BME280;49105;46.046;10.760;2023-03-13T06:03:04;95773.19;;;5.43;63.17
63019;BME280;49105;46.046;10.760;2023-03-13T06:05:29;95790.97;;;5.53;62.89
63019;BME280;49105;46.046;10.760;2023-03-13T06:07:55;95796.53;;;5.56;62.54
63019;BME280;49105;46.046;10.760;2023-03-13T06:10:36;95799.16;;;5.56;63.14
63019;BME280;49105;46.046;10.760;2023-03-13T06:13:02;95802.16;;;5.48;62.69
63019;BME280;49105;46.046;10.760;2023-03-13T06:15:27;95799.28;;;5.50;62.78
63019;BME280;49105;46.046;10.760;2023-03-13T06:17:52;95789.91;;;5.54;62.87
63019;BME280;49105;46.046;10.760;2023-03-13T06:20:24;95785.00;;;5.57;63.06
63019;BME280;49105;46.046;10.760;2023-03-13T06:22:49;95763.28;;;5.62;62.55
63019;BME280;49105;46.046;10.760;2023-03-13T06:25:21;95776.81;;;5.70;62.89
63019;BME280;49105;46.046;10.760;2023-03-13T06:27:59;95772.44;;;5.76;62.83
63019;BME280;49105;46.046;10.760;2023-03-13T06:30:34;95780.88;;;5.78;62.64
63019;BME280;49105;46.046;10.760;2023-03-13T06:33:25;95787.69;;;5.62;63.05
63019;BME280;49105;46.046;10.760;2023-03-13T06:35:51;95784.41;;;5.55;62.98
63019;BME280;49105;46.046;10.760;2023-03-13T06:38:26;95789.44;;;5.57;63.45
63019;BME280;49105;46.046;10.760;2023-03-13T06:41:06;95780.63;;;5.63;63.20
63019;BME280;49105;46.046;10.760;2023-03-13T06:43:31;95778.31;;;5.66;62.92
63019;BME280;49105;46.046;10.760;2023-03-13T06:46:02;95786.59;;;5.75;62.73
63019;BME280;49105;46.046;10.760;2023-03-13T06:48:36;95774.56;;;5.79;62.83
63019;BME280;49105;46.046;10.760;2023-03-13T06:51:02;95782.31;;;5.86;62.94
63019;BME280;49105;46.046;10.760;2023-03-13T06:53:37;95777.91;;;5.91;62.41
63019;BME280;49105;46.046;10.760;2023-03-13T06:56:02;95776.13;;;5.92;62.93
63019;BME280;49105;46.046;10.760;2023-03-13T06:58:37;95783.91;;;5.87;62.86
63019;BME280;49105;46.046;10.760;2023-03-13T07:01:16;95788.81;;;5.83;63.09
63019;BME280;49105;46.046;10.760;2023-03-13T07:03:48;95779.44;;;5.87;62.65
63019;BME280;49105;46.046;10.760;2023-03-13T07:06:19;95782.16;;;5.92;62.92
63019;BME280;49105;46.046;10.760;2023-03-13T07:08:45;95786.72;;;5.97;62.95
63019;BME280;49105;46.046;10.760;2023-03-13T07:11:14;95784.38;;;6.01;62.63
63019;BME280;49105;46.046;10.760;2023-03-13T07:13:40;95779.22;;;6.06;62.60
63019;BME280;49105;46.046;10.760;2023-03-13T07:16:10;95775.41;;;6.13;62.74
63019;BME280;49105;46.046;10.760;2023-03-13T07:18:43;95780.72;;;6.18;62.58
63019;BME280;49105;46.046;10.760;2023-03-13T07:21:43;95782.63;;;6.23;62.24
63019;BME280;49105;46.046;10.760;2023-03-13T07:24:16;95777.84;;;6.20;62.54
63019;BME280;49105;46.046;10.760;2023-03-13T07:26:50;95782.78;;;6.16;62.36
63019;BME280;49105;46.046;10.760;2023-03-13T07:29:16;95783.19;;;6.08;62.61
63019;BME280;49105;46.046;10.760;2023-03-13T07:31:41;95785.34;;;6.11;62.76
63019;BME280;49105;46.046;10.760;2023-03-13T07:34:07;95772.53;;;6.15;62.70
63019;BME280;49105;46.046;10.760;2023-03-13T07:36:32;95780.56;;;6.25;62.69
63019;BME280;49105;46.046;10.760;2023-03-13T07:39:05;95778.47;;;6.44;62.61
63019;BME280;49105;46.046;10.760;2023-03-13T07:41:33;95772.84;;;6.57;62.79
63019;BME280;49105;46.046;10.760;2023-03-13T07:44:05;95778.72;;;6.64;62.43
63019;BME280;49105;46.046;10.760;2023-03-13T07:46:30;95771.69;;;6.70;62.20
63019;BME280;49105;46.046;10.760;2023-03-13T07:49:02;95777.25;;;6.74;62.10
63019;BME280;49105;46.046;10.760;2023-03-13T07:51:33;95778.56;;;6.71;62.24
63019;BME280;49105;46.046;10.760;2023-03-13T07:53:59;95774.19;;;6.82;62.25
63019;BME280;49105;46.046;10.760;2023-03-13T07:56:27;95761.41;;;6.90;61.70
63019;BME280;49105;46.046;10.760;2023-03-13T07:59:02;95758.41;;;7.04;61.93
63019;BME280;49105;46.046;10.760;2023-03-13T08:01:48;95753.00;;;7.15;61.66
63019;BME280;49105;46.046;10.760;2023-03-13T08:04:22;95745.16;;;7.20;61.64
63019;BME280;49105;46.046;10.760;2023-03-13T08:06:57;95749.69;;;7.25;61.38
63019;BME280;49105;46.046;10.760;2023-03-13T08:09:32;95754.75;;;7.32;61.19
63019;BME280;49105;46.046;10.760;2023-03-13T08:11:57;95756.69;;;7.41;60.97
63019;BME280;49105;46.046;10.760;2023-03-13T08:14:32;95754.41;;;7.50;60.98
63019;BME280;49105;46.046;10.760;2023-03-13T08:16:57;95751.53;;;7.57;60.52
63019;BME280;49105;46.046;10.760;2023-03-13T08:19:23;95756.59;;;7.58;60.81
63019;BME280;49105;46.046;10.760;2023-03-13T08:21:48;95741.06;;;7.62;60.85
63019;BME280;49105;46.046;10.760;2023-03-13T08:24:14;95744.03;;;7.70;60.63
63019;BME280;49105;46.046;10.760;2023-03-13T08:26:42;95742.22;;;7.76;60.39
63019;BME280;49105;46.046;10.760;2023-03-13T08:29:10;95738.59;;;7.82;60.54
63019;BME280;49105;46.046;10.760;2023-03-13T08:31:49;95737.13;;;7.96;60.24
63019;BME280;49105;46.046;10.760;2023-03-13T08:34:17;95736.34;;;8.01;59.80
63019;BME280;49105;46.046;10.760;2023-03-13T08:36:50;95736.63;;;8.00;60.00
63019;BME280;49105;46.046;10.760;2023-03-13T08:39:20;95734.22;;;7.98;59.78
63019;BME280;49105;46.046;10.760;2023-03-13T08:41:46;95740.00;;;7.95;59.98
63019;BME280;49105;46.046;10.760;2023-03-13T08:44:13;95742.13;;;7.98;59.96
63019;BME280;49105;46.046;10.760;2023-03-13T08:46:39;95727.38;;;8.02;59.78
63019;BME280;49105;46.046;10.760;2023-03-13T08:49:07;95739.28;;;8.05;59.55
63019;BME280;49105;46.046;10.760;2023-03-13T08:51:33;95744.56;;;8.05;59.85
63019;BME280;49105;46.046;10.760;2023-03-13T08:53:59;95746.91;;;8.06;59.56
63019;BME280;49105;46.046;10.760;2023-03-13T08:56:26;95744.06;;;8.08;59.49
63019;BME280;49105;46.046;10.760;2023-03-13T08:58:54;95756.19;;;8.09;59.57
63019;BME280;49105;46.046;10.760;2023-03-13T09:01:22;95758.34;;;8.17;59.64
63019;BME280;49105;46.046;10.760;2023-03-13T09:03:48;95755.78;;;8.27;59.08
63019;BME280;49105;46.046;10.760;2023-03-13T09:06:14;95747.16;;;8.37;59.20
63019;BME280;49105;46.046;10.760;2023-03-13T09:08:40;95734.56;;;8.49;58.72
63019;BME280;49105;46.046;10.760;2023-03-13T09:11:11;95725.91;;;8.59;58.94
63019;BME280;49105;46.046;10.760;2023-03-13T09:13:39;95721.19;;;8.71;58.53
63019;BME280;49105;46.046;10.760;2023-03-13T09:16:07;95719.66;;;8.80;58.37
63019;BME280;49105;46.046;10.760;2023-03-13T09:18:33;95730.25;;;9.01;58.20
63019;BME280;49105;46.046;10.760;2023-03-13T09:20:59;95724.75;;;9.17;58.26
63019;BME280;49105;46.046;10.760;2023-03-13T09:23:25;95721.09;;;9.34;58.18
63019;BME280;49105;46.046;10.760;2023-03-13T09:25:55;95712.69;;;9.47;57.84
63019;BME280;49105;46.046;10.760;2023-03-13T09:28:22;95693.66;;;9.65;57.28
63019;BME280;49105;46.046;10.760;2023-03-13T09:30:48;95697.09;;;9.81;57.59
63019;BME280;49105;46.046;10.760;2023-03-13T09:33:19;95703.41;;;9.90;57.34
63019;BME280;49105;46.046;10.760;2023-03-13T09:35:45;95707.91;;;9.95;57.40
63019;BME280;49105;46.046;10.760;2023-03-13T09:38:16;95706.03;;;9.95;57.44
63019;BME280;49105;46.046;10.760;2023-03-13T09:40:44;95706.03;;;9.95;57.33
63019;BME280;49105;46.046;10.760;2023-03-13T09:46:01;95693.09;;;10.09;56.71
63019;BME280;49105;46.046;10.760;2023-03-13T09:48:40;95692.78;;;10.16;56.83
63019;BME280;49105;46.046;10.760;2023-03-13T09:56:46;95674.28;;;10.31;56.85
63019;BME280;49105;46.046;10.760;2023-03-13T09:59:21;95666.56;;;10.45;56.84
63019;BME280;49105;46.046;10.760;2023-03-13T10:01:53;95661.50;;;10.54;56.14
63019;BME280;49105;46.046;10.760;2023-03-13T10:04:38;95652.19;;;10.61;56.11
63019;BME280;49105;46.046;10.760;2023-03-13T10:07:12;95649.03;;;10.59;55.43
63019;BME280;49105;46.046;10.760;2023-03-13T10:09:38;95648.50;;;10.57;55.64
63019;BME280;49105;46.046;10.760;2023-03-13T10:17:37;95660.94;;;10.57;54.44
63019;BME280;49105;46.046;10.760;2023-03-13T10:20:23;95673.63;;;10.65;54.37
63019;BME280;49105;46.046;10.760;2023-03-13T10:23:04;95665.09;;;10.78;54.19
63019;BME280;49105;46.046;10.760;2023-03-13T10:25:37;95669.25;;;10.89;54.16
63019;BME280;49105;46.046;10.760;2023-03-13T10:28:12;95680.84;;;11.04;54.21
63019;BME280;49105;46.046;10.760;2023-03-13T10:34:20;95670.72;;;11.16;53.50
63019;BME280;49105;46.046;10.760;2023-03-13T10:36:56;95651.84;;;11.23;53.55
63019;BME280;49105;46.046;10.760;2023-03-13T10:39:24;95660.31;;;11.25;52.99
63019;BME280;49105;46.046;10.760;2023-03-13T10:41:56;95655.53;;;11.27;53.00
63019;BME280;49105;46.046;10.760;2023-03-13T10:44:23;95652.56;;;11.33;53.38
63019;BME280;49105;46.046;10.760;2023-03-13T10:47:00;95645.59;;;11.42;52.78
63019;BME280;49105;46.046;10.760;2023-03-13T10:49:49;95645.06;;;11.46;52.93
63019;BME280;49105;46.046;10.760;2023-03-13T10:52:34;95635.97;;;11.52;52.80
63019;BME280;49105;46.046;10.760;2023-03-13T10:55:09;95627.72;;;11.58;52.46
63019;BME280;49105;46.046;10.760;2023-03-13T10:57:35;95605.44;;;11.59;52.16
63019;BME280;49105;46.046;10.760;2023-03-13T11:00:27;95601.41;;;11.67;51.78
63019;BME280;49105;46.046;10.760;2023-03-13T11:02:56;95596.28;;;11.76;51.77
63019;BME280;49105;46.046;10.760;2023-03-13T11:10:51;95599.94;;;12.09;51.58
63019;BME280;49105;46.046;10.760;2023-03-13T11:13:34;95599.84;;;12.19;51.35
63019;BME280;49105;46.046;10.760;2023-03-13T11:16:09;95598.28;;;12.13;50.58
63019;BME280;49105;46.046;10.760;2023-03-13T11:24:38;95591.47;;;12.07;50.16
63019;BME280;49105;46.046;10.760;2023-03-13T11:30:44;95574.41;;;12.13;49.76
63019;BME280;49105;46.046;10.760;2023-03-13T11:36:35;95559.03;;;12.34;50.00
63019;BME280;49105;46.046;10.760;2023-03-13T11:52:41;95541.63;;;12.84;48.86
63019;BME280;49105;46.046;10.760;2023-03-13T11:55:31;95523.53;;;12.86;49.00
63019;BME280;49105;46.046;10.760;2023-03-13T11:58:34;95515.00;;;12.89;48.68
63019;BME280;49105;46.046;10.760;2023-03-13T12:01:13;95522.81;;;12.81;48.84
63019;BME280;49105;46.046;10.760;2023-03-13T12:06:57;95510.41;;;12.76;48.02
63019;BME280;49105;46.046;10.760;2023-03-13T12:09:40;95509.25;;;12.82;47.91
63019;BME280;49105;46.046;10.760;2023-03-13T12:17:52;95498.41;;;12.79;47.99
63019;BME280;49105;46.046;10.760;2023-03-13T12:20:36;95500.28;;;12.78;48.40
63019;BME280;49105;46.046;10.760;2023-03-13T12:26:15;95481.34;;;12.66;47.90
63019;BME280;49105;46.046;10.760;2023-03-13T12:29:25;95480.88;;;12.64;47.62
63019;BME280;49105;46.046;10.760;2023-03-13T12:34:38;95466.28;;;12.80;47.80
63019;BME280;49105;46.046;10.760;2023-03-13T12:37:20;95463.75;;;12.89;47.56
63019;BME280;49105;46.046;10.760;2023-03-13T12:40:20;95453.03;;;12.94;48.18
63019;BME280;49105;46.046;10.760;2023-03-13T12:45:18;95447.81;;;13.03;47.59
63019;BME280;49105;46.046;10.760;2023-03-13T12:59:18;95421.91;;;13.27;47.53
63019;BME280;49105;46.046;10.760;2023-03-13T13:05:01;95411.84;;;13.24;46.54
63019;BME280;49105;46.046;10.760;2023-03-13T13:07:32;95422.06;;;13.17;46.48
63019;BME280;49105;46.046;10.760;2023-03-13T13:12:33;95410.28;;;13.23;46.74
63019;BME280;49105;46.046;10.760;2023-03-13T13:15:02;95410.06;;;13.20;46.74
63019;BME280;49105;46.046;10.760;2023-03-13T13:25:50;95412.66;;;13.38;45.68
63019;BME280;49105;46.046;10.760;2023-03-13T13:30:50;95401.44;;;13.42;45.92
63019;BME280;49105;46.046;10.760;2023-03-13T13:38:34;95383.72;;;13.23;46.10
63019;BME280;49105;46.046;10.760;2023-03-13T13:43:36;95377.97;;;13.16;45.84
63019;BME280;49105;46.046;10.760;2023-03-13T13:46:24;95374.25;;;13.17;45.74
63019;BME280;49105;46.046;10.760;2023-03-13T13:57:19;95367.19;;;13.26;45.57
63019;BME280;49105;46.046;10.760;2023-03-13T14:02:48;95363.06;;;13.34;45.26
63019;BME280;49105;46.046;10.760;2023-03-13T14:05:18;95369.75;;;13.31;45.52
63019;BME280;49105;46.046;10.760;2023-03-13T14:07:59;95360.66;;;13.32;45.58
63019;BME280;49105;46.046;10.760;2023-03-13T14:10:40;95362.66;;;13.27;45.52
63019;BME280;49105;46.046;10.760;2023-03-13T14:13:17;95356.03;;;13.24;44.77
63019;BME280;49105;46.046;10.760;2023-03-13T14:15:53;95349.06;;;13.28;44.90
63019;BME280;49105;46.046;10.760;2023-03-13T14:20:53;95361.47;;;13.33;44.70
63019;BME280;49105;46.046;10.760;2023-03-13T14:25:57;95354.66;;;13.13;45.11
63019;BME280;49105;46.046;10.760;2023-03-13T14:31:53;95351.38;;;13.16;45.15
63019;BME280;49105;46.046;10.760;2023-03-13T14:34:23;95348.94;;;13.20;45.05
63019;BME280;49105;46.046;10.760;2023-03-13T14:36:53;95344.63;;;13.24;45.65
63019;BME280;49105;46.046;10.760;2023-03-13T14:42:08;95341.38;;;13.40;45.45
63019;BME280;49105;46.046;10.760;2023-03-13T14:44:46;95348.66;;;13.49;44.75
63019;BME280;49105;46.046;10.760;2023-03-13T14:47:23;95335.34;;;13.49;44.96
63019;BME280;49105;46.046;10.760;2023-03-13T14:50:15;95326.13;;;13.46;45.06
63019;BME280;49105;46.046;10.760;2023-03-13T14:53:02;95340.41;;;13.36;44.60
63019;BME280;49105;46.046;10.760;2023-03-13T14:55:31;95325.66;;;13.30;44.65
63019;BME280;49105;46.046;10.760;2023-03-13T15:00:48;95318.72;;;13.02;45.33
63019;BME280;49105;46.046;10.760;2023-03-13T15:03:24;95319.13;;;12.95;45.60
63019;BME280;49105;46.046;10.760;2023-03-13T15:06:06;95320.09;;;12.85;45.29
63019;BME280;49105;46.046;10.760;2023-03-13T15:08:47;95311.47;;;12.80;45.61
63019;BME280;49105;46.046;10.760;2023-03-13T15:11:31;95297.38;;;12.79;45.54
63019;BME280;49105;46.046;10.760;2023-03-13T15:14:01;95306.16;;;12.80;46.09
63019;BME280;49105;46.046;10.760;2023-03-13T15:16:36;95300.03;;;12.79;45.57
63019;BME280;49105;46.046;10.760;2023-03-13T15:19:01;95312.03;;;12.77;45.88
63019;BME280;49105;46.046;10.760;2023-03-13T15:21:33;95305.75;;;12.73;45.95
63019;BME280;49105;46.046;10.760;2023-03-13T15:24:11;95307.09;;;12.70;46.04
63019;BME280;49105;46.046;10.760;2023-03-13T15:26:37;95297.56;;;12.69;46.46
63019;BME280;49105;46.046;10.760;2023-03-13T15:29:03;95306.13;;;12.66;46.37
63019;BME280;49105;46.046;10.760;2023-03-13T15:31:37;95306.13;;;12.66;46.52